Time;durP1;ratioP1;P1;durP2;ratioP2;P2;SDS_P1;SDS_P2;PMS_P1;PMS_P2;Temp;Humidity;BMP_temperature;BMP_pressure;BME280_temperature;BME280_humidity;BME280_pressure;Samples;Min_cycle;Max_cycle;Signal;HPM_P1;HPM_P2
2022/07/06 00:00:07;;;;;;;9.13;6.65;;;;;;;18.14;100.00;100626.98;1728307;81;21023;-42
2022/07/06 00:02:34;;;;;;;11.75;6.17;;;;;;;18.12;100.00;100634.55;1728286;82;21501;-42
2022/07/06 00:05:03;;;;;;;9.70;6.03;;;;;;;18.07;100.00;100626.45;1723281;82;21513;-42
2022/07/06 00:07:30;;;;;;;11.22;7.03;;;;;;;18.04;100.00;100629.67;1725024;82;20952;-42
2022/07/06 00:09:58;;;;;;;9.55;6.58;;;;;;;18.00;100.00;100623.69;1729723;82;21158;-42
2022/07/06 00:12:24;;;;;;;14.90;6.55;;;;;;;17.96;100.00;100624.75;1729259;82;20928;-41
2022/07/06 00:14:52;;;;;;;17.32;6.80;;;;;;;17.91;100.00;100622.81;1719460;82;21027;-43
2022/07/06 00:17:21;;;;;;;6.95;6.35;;;;;;;17.87;100.00;100626.50;1731595;82;21012;-42
2022/07/06 00:19:47;;;;;;;10.98;6.92;;;;;;;17.82;100.00;100618.84;1731274;82;20957;-42
2022/07/06 00:22:14;;;;;;;8.15;7.35;;;;;;;17.78;100.00;100624.67;1729807;82;21134;-42
2022/07/06 00:24:41;;;;;;;10.78;6.47;;;;;;;17.75;100.00;100622.68;1729382;82;20933;-44
2022/07/06 00:27:07;;;;;;;9.98;7.33;;;;;;;17.72;100.00;100619.73;1726220;82;21040;-43
2022/07/06 00:29:34;;;;;;;10.45;7.60;;;;;;;17.69;100.00;100619.87;1734871;82;20948;-43
2022/07/06 00:32:01;;;;;;;11.12;7.33;;;;;;;17.67;100.00;100623.03;1728689;82;20928;-42
2022/07/06 00:34:28;;;;;;;10.82;7.97;;;;;;;17.67;100.00;100621.23;1708312;82;21231;-43
2022/07/06 00:36:55;;;;;;;9.73;7.17;;;;;;;17.68;100.00;100623.41;1698611;84;20992;-43
2022/07/06 00:39:23;;;;;;;7.75;7.03;;;;;;;17.66;100.00;100623.95;1687921;84;20995;-42
2022/07/06 00:41:50;;;;;;;15.75;7.12;;;;;;;17.63;100.00;100623.61;1696511;84;20916;-42
2022/07/06 00:44:17;;;;;;;13.93;7.53;;;;;;;17.59;100.00;100621.22;1657112;84;21007;-43
2022/07/06 00:46:43;;;;;;;15.30;7.42;;;;;;;17.58;100.00;100619.53;1670956;84;21050;-42
2022/07/06 00:50:13;;;;;;;8.80;6.70;;;;;;;17.56;100.00;100617.44;1687216;84;21205;-42
2022/07/06 00:51:40;;;;;;;8.88;6.72;;;;;;;17.56;100.00;100616.97;1676750;84;20968;-43
2022/07/06 00:54:07;;;;;;;8.00;7.20;;;;;;;17.54;100.00;100618.80;1680745;84;21490;-42
2022/07/06 00:56:34;;;;;;;10.32;7.60;;;;;;;17.51;100.00;100627.63;1687051;84;21012;-42
2022/07/06 00:59:02;;;;;;;12.05;8.23;;;;;;;17.45;100.00;100623.98;1680611;84;21250;-42
2022/07/06 01:01:30;;;;;;;9.48;7.53;;;;;;;17.40;100.00;100624.66;1681217;84;21008;-42
2022/07/06 01:03:57;;;;;;;13.80;7.87;;;;;;;17.36;100.00;100627.86;1679249;84;20973;-42
2022/07/06 01:06:25;;;;;;;12.47;7.65;;;;;;;17.34;100.00;100632.31;1671679;84;20944;-42
2022/07/06 01:08:54;;;;;;;8.43;7.50;;;;;;;17.34;100.00;100628.86;1679314;84;21011;-42
2022/07/06 01:11:22;;;;;;;11.63;7.60;;;;;;;17.31;100.00;100628.52;1680331;84;21324;-42
2022/07/06 01:13:49;;;;;;;14.13;8.60;;;;;;;17.29;100.00;100633.42;1676710;84;21475;-42
2022/07/06 01:16:16;;;;;;;15.05;8.13;;;;;;;17.25;100.00;100631.42;1681036;84;21003;-42
2022/07/06 01:18:44;;;;;;;11.00;7.97;;;;;;;17.24;100.00;100632.34;1612740;84;20991;-42
2022/07/06 01:21:13;;;;;;;18.57;8.75;;;;;;;17.23;100.00;100631.95;1677695;84;21051;-42
2022/07/06 01:23:46;;;;;;;10.08;7.85;;;;;;;17.20;100.00;100627.69;1684709;84;21808;-42
2022/07/06 01:26:19;;;;;;;16.37;8.55;;;;;;;17.18;100.00;100625.59;1687077;83;20960;-43
2022/07/06 01:28:49;;;;;;;8.90;8.10;;;;;;;17.17;100.00;100629.12;1644615;85;21020;-42
2022/07/06 01:31:25;;;;;;;9.68;8.60;;;;;;;17.15;100.00;100626.18;1683929;84;21062;-42
2022/07/06 01:33:54;;;;;;;10.28;8.05;;;;;;;17.14;100.00;100633.63;1671755;84;21592;-42
2022/07/06 01:36:20;;;;;;;12.07;8.33;;;;;;;17.15;100.00;100629.66;1677973;84;21264;-42
2022/07/06 01:38:50;;;;;;;9.75;8.60;;;;;;;17.18;100.00;100633.44;1691111;84;20945;-42
2022/07/06 01:41:17;;;;;;;8.68;7.87;;;;;;;17.19;100.00;100631.70;1681882;84;20921;-42
2022/07/06 01:43:44;;;;;;;11.48;8.65;;;;;;;17.19;100.00;100634.31;1676633;83;21036;-43
2022/07/06 01:46:11;;;;;;;15.45;7.75;;;;;;;17.17;100.00;100633.50;1697602;83;21015;-42
2022/07/06 01:48:39;;;;;;;17.92;8.48;;;;;;;17.15;100.00;100627.48;1682642;84;21059;-42
2022/07/06 01:51:06;;;;;;;10.88;8.10;;;;;;;17.12;100.00;100628.48;1676398;85;21726;-42
2022/07/06 01:53:34;;;;;;;20.25;8.13;;;;;;;17.07;100.00;100631.29;1685427;84;20900;-42
2022/07/06 01:56:01;;;;;;;9.53;7.65;;;;;;;17.05;100.00;100627.89;1689183;84;21018;-42
2022/07/06 01:58:28;;;;;;;11.93;7.97;;;;;;;17.03;100.00;100634.95;1697100;84;21546;-42
2022/07/06 02:00:56;;;;;;;14.85;8.38;;;;;;;17.02;100.00;100633.70;1677971;84;21269;-42
2022/07/06 02:03:23;;;;;;;10.68;7.90;;;;;;;17.00;100.00;100620.71;1696741;83;21229;-43
2022/07/06 02:05:50;;;;;;;16.32;8.55;;;;;;;16.98;100.00;100631.70;1697080;83;21018;-42
2022/07/06 02:08:17;;;;;;;17.77;7.87;;;;;;;16.95;100.00;100631.33;1682398;84;20972;-42
2022/07/06 02:10:44;;;;;;;9.08;8.18;;;;;;;16.94;100.00;100633.55;1657174;85;21030;-43
2022/07/06 02:13:10;;;;;;;20.95;9.00;;;;;;;16.94;100.00;100636.63;1689610;84;21058;-43
2022/07/06 02:15:37;;;;;;;15.28;8.33;;;;;;;16.93;100.00;100637.08;1691890;83;21489;-43
2022/07/06 02:18:05;;;;;;;13.10;8.33;;;;;;;16.95;100.00;100631.33;1696837;83;20988;-42
2022/07/06 02:20:32;;;;;;;8.65;7.72;;;;;;;16.97;100.00;100635.64;1685323;84;21046;-43
2022/07/06 02:22:59;;;;;;;11.12;8.13;;;;;;;17.00;100.00;100636.84;1698690;83;21478;-42
2022/07/06 02:25:26;;;;;;;8.68;7.70;;;;;;;17.02;100.00;100639.80;1676933;84;21729;-43
2022/07/06 02:27:53;;;;;;;9.28;8.10;;;;;;;17.04;100.00;100634.48;1694694;83;20971;-42
2022/07/06 02:30:20;;;;;;;16.62;8.60;;;;;;;17.06;100.00;100631.38;1692281;84;20964;-43
2022/07/06 02:32:47;;;;;;;17.75;8.58;;;;;;;17.08;100.00;100643.92;1691354;83;21046;-42
2022/07/06 02:35:15;;;;;;;11.65;8.05;;;;;;;17.10;100.00;100643.40;1694895;83;20908;-43
2022/07/06 02:37:42;;;;;;;9.83;7.67;;;;;;;17.14;100.00;100650.19;1701185;83;21320;-42
2022/07/06 02:40:10;;;;;;;12.90;8.58;;;;;;;17.17;100.00;100644.83;1684652;83;20857;-42
2022/07/06 02:42:37;;;;;;;12.82;8.60;;;;;;;17.22;100.00;100641.55;1657164;85;22212;-43
2022/07/06 02:45:07;;;;;;;12.95;8.35;;;;;;;17.32;100.00;100647.70;1658554;84;20944;-43
2022/07/06 02:47:35;;;;;;;9.23;7.83;;;;;;;17.41;100.00;100645.11;1689172;83;21425;-43
2022/07/06 02:50:05;;;;;;;8.73;7.75;;;;;;;17.50;100.00;100645.56;1727878;82;21980;-42
2022/07/06 02:52:32;;;;;;;19.25;8.20;;;;;;;17.61;100.00;100638.54;1728409;82;20905;-43
2022/07/06 02:54:59;;;;;;;17.52;9.10;;;;;;;17.69;100.00;100639.51;1712119;82;21044;-43
2022/07/06 02:57:26;;;;;;;10.18;8.20;;;;;;;17.80;100.00;100641.16;1731394;82;20996;-42
2022/07/06 02:59:53;;;;;;;10.68;8.40;;;;;;;17.92;100.00;100641.53;1719285;82;21023;-43
2022/07/06 03:02:20;;;;;;;11.00;7.37;;;;;;;18.01;100.00;100641.13;1728408;82;21142;-43
2022/07/06 03:04:46;;;;;;;14.45;8.13;;;;;;;18.09;100.00;100639.02;1689895;82;20989;-43
2022/07/06 03:07:14;;;;;;;10.72;8.00;;;;;;;18.19;100.00;100645.12;1727431;82;20984;-42
2022/07/06 03:09:42;;;;;;;13.50;7.95;;;;;;;18.25;100.00;100642.20;1724276;82;21339;-43
2022/07/06 03:12:10;;;;;;;10.38;6.97;;;;;;;18.32;100.00;100647.55;1727862;82;21561;-42
2022/07/06 03:14:37;;;;;;;12.18;7.65;;;;;;;18.37;100.00;100643.38;1728431;82;21416;-43
2022/07/06 03:17:05;;;;;;;12.30;7.47;;;;;;;18.45;100.00;100643.02;1728209;82;20996;-43
2022/07/06 03:19:32;;;;;;;12.98;7.28;;;;;;;18.52;100.00;100643.09;1726489;82;20873;-43
2022/07/06 03:21:58;;;;;;;12.50;7.25;;;;;;;18.57;100.00;100641.13;1725486;82;20972;-43
2022/07/06 03:24:25;;;;;;;15.35;7.30;;;;;;;18.63;100.00;100656.54;1715515;82;21016;-43
2022/07/06 03:26:52;;;;;;;18.32;7.70;;;;;;;18.70;100.00;100649.68;1728487;82;21163;-43
2022/07/06 03:29:20;;;;;;;18.48;8.65;;;;;;;18.75;100.00;100648.98;1729351;82;21043;-43
2022/07/06 03:31:47;;;;;;;13.68;7.70;;;;;;;18.83;100.00;100652.09;1726074;82;20944;-43
2022/07/06 03:34:14;;;;;;;11.93;6.87;;;;;;;18.91;100.00;100655.16;1719345;82;20952;-43
2022/07/06 03:36:41;;;;;;;12.75;7.87;;;;;;;19.00;100.00;100654.34;1725897;82;20849;-43
2022/07/06 03:39:09;;;;;;;11.95;7.42;;;;;;;19.10;100.00;100649.02;1740291;82;21102;-43
2022/07/06 03:41:37;;;;;;;10.90;7.28;;;;;;;19.23;100.00;100650.07;1731847;82;21304;-43
2022/07/06 03:44:04;;;;;;;12.18;7.83;;;;;;;19.38;100.00;100644.97;1725243;82;20921;-43
2022/07/06 03:46:32;;;;;;;28.10;8.15;;;;;;;19.58;100.00;100642.59;1733027;82;20936;-43
2022/07/06 03:48:59;;;;;;;13.13;7.12;;;;;;;19.86;100.00;100642.89;1732478;82;20995;-43
2022/07/06 03:51:26;;;;;;;13.10;7.42;;;;;;;20.22;100.00;100645.73;1732116;82;21240;-43
2022/07/06 03:53:53;;;;;;;13.90;7.90;;;;;;;20.61;100.00;100644.42;1730894;82;20936;-43
2022/07/06 03:56:29;;;;;;;25.97;7.53;;;;;;;21.02;100.00;100637.69;1726862;82;20976;-43
2022/07/06 03:59:01;;;;;;;15.25;7.42;;;;;;;21.46;100.00;100633.75;1721361;82;20963;-43
2022/07/06 04:01:29;;;;;;;14.05;6.80;;;;;;;21.90;100.00;100643.82;1734825;82;20912;-43
2022/07/06 04:03:58;;;;;;;12.58;7.00;;;;;;;22.30;100.00;100646.52;1734019;81;21065;-43
2022/07/06 04:06:25;;;;;;;11.35;6.85;;;;;;;22.67;100.00;100644.14;1730936;82;21822;-44
2022/07/06 04:08:52;;;;;;;15.05;6.95;;;;;;;23.01;100.00;100648.94;1735470;82;20971;-43
2022/07/06 04:11:19;;;;;;;13.05;6.00;;;;;;;23.38;100.00;100640.31;1731439;82;21040;-44
2022/07/06 04:13:47;;;;;;;22.02;5.90;;;;;;;23.71;98.88;100635.38;1709449;82;20975;-43
2022/07/06 04:16:13;;;;;;;12.80;5.97;;;;;;;24.00;96.70;100635.07;1743395;82;21153;-44
2022/07/06 04:18:41;;;;;;;11.65;5.40;;;;;;;24.25;94.42;100635.03;1740679;82;20920;-43
2022/07/06 04:21:08;;;;;;;14.25;5.72;;;;;;;24.49;92.71;100641.25;1733187;82;20948;-43
2022/07/06 04:23:36;;;;;;;12.13;5.90;;;;;;;24.71;91.43;100635.67;1724115;82;21433;-44
2022/07/06 04:26:04;;;;;;;7.62;5.12;;;;;;;24.99;90.30;100634.42;1736634;82;20916;-43
2022/07/06 04:28:32;;;;;;;6.37;5.55;;;;;;;25.30;88.93;100640.47;1742549;82;21370;-43
2022/07/06 04:30:59;;;;;;;14.30;5.83;;;;;;;25.57;87.43;100636.65;1740710;82;20940;-43
2022/07/06 04:33:26;;;;;;;9.90;5.85;;;;;;;25.76;85.67;100632.89;1725345;81;20968;-44
2022/07/06 04:35:54;;;;;;;13.85;5.87;;;;;;;26.01;85.12;100632.70;1735893;82;20991;-44
2022/07/06 04:38:22;;;;;;;11.43;5.22;;;;;;;26.26;83.14;100634.23;1692266;83;22015;-43
2022/07/06 04:40:50;;;;;;;8.65;5.92;;;;;;;26.52;81.51;100635.22;1726716;82;21862;-43
2022/07/06 04:43:18;;;;;;;8.15;5.25;;;;;;;26.70;78.99;100637.30;1734010;81;21015;-44
2022/07/06 04:45:45;;;;;;;12.30;5.53;;;;;;;26.88;78.24;100638.91;1731166;82;20933;-43
2022/07/06 04:48:13;;;;;;;10.10;5.87;;;;;;;27.04;76.55;100635.31;1723380;82;21199;-42
2022/07/06 04:50:39;;;;;;;8.80;5.90;;;;;;;27.21;75.30;100633.85;1714796;82;21549;-43
2022/07/06 04:53:07;;;;;;;18.00;5.70;;;;;;;27.36;73.46;100628.16;1722075;82;21403;-43
2022/07/06 04:55:34;;;;;;;9.18;6.17;;;;;;;27.44;71.78;100634.14;1729525;82;20980;-43
2022/07/06 04:58:01;;;;;;;11.20;5.50;;;;;;;27.58;71.28;100636.95;1717757;82;20894;-42
2022/07/06 05:00:28;;;;;;;12.03;6.05;;;;;;;27.75;70.83;100636.30;1713734;81;20980;-42
2022/07/06 05:02:55;;;;;;;13.50;5.62;;;;;;;27.95;70.49;100633.69;1721043;82;20941;-42
2022/07/06 05:05:24;;;;;;;12.93;5.72;;;;;;;28.20;69.44;100632.83;1722591;82;21106;-43
2022/07/06 05:07:51;;;;;;;11.65;5.62;;;;;;;28.39;68.16;100630.14;1724264;82;21008;-43
2022/07/06 05:10:20;;;;;;;8.73;6.03;;;;;;;28.54;66.78;100639.05;1729513;82;20885;-43
2022/07/06 05:12:49;;;;;;;12.37;5.70;;;;;;;28.66;65.97;100637.06;1722105;82;21000;-43
2022/07/06 05:15:18;;;;;;;9.85;5.40;;;;;;;28.75;66.03;100636.20;1720424;82;20937;-44
2022/07/06 05:17:46;;;;;;;16.75;6.20;;;;;;;28.91;66.60;100638.30;1714770;82;21482;-42
2022/07/06 05:20:13;;;;;;;8.95;5.22;;;;;;;29.05;63.95;100639.69;1714070;82;20996;-43
2022/07/06 05:22:42;;;;;;;10.65;5.60;;;;;;;29.16;65.10;100638.64;1733441;82;20980;-44
2022/07/06 05:25:09;;;;;;;11.12;5.85;;;;;;;29.34;64.74;100639.21;1720520;82;21456;-44
2022/07/06 05:27:36;;;;;;;7.58;5.55;;;;;;;29.48;63.26;100640.58;1719636;82;20952;-44
2022/07/06 05:30:06;;;;;;;13.53;5.35;;;;;;;29.62;62.21;100634.77;1724772;81;21145;-42
2022/07/06 05:32:33;;;;;;;10.32;5.70;;;;;;;29.83;62.72;100637.66;1722591;82;21628;-43
2022/07/06 05:35:01;;;;;;;26.00;5.90;;;;;;;30.02;62.23;100635.38;1725694;82;20929;-43
2022/07/06 05:37:27;;;;;;;14.68;5.87;;;;;;;30.25;60.58;100634.92;1721556;82;21454;-43
2022/07/06 05:39:54;;;;;;;10.58;5.65;;;;;;;30.45;59.78;100637.44;1726349;82;21040;-43
2022/07/06 05:42:21;;;;;;;11.60;6.08;;;;;;;30.64;58.69;100639.92;1721943;82;21049;-43
2022/07/06 05:44:48;;;;;;;17.00;6.37;;;;;;;30.75;57.58;100630.00;1722514;82;21474;-42
2022/07/06 05:50:13;;;;;;;13.00;6.20;;;;;;;31.07;56.13;100625.84;1739346;82;20948;-42
2022/07/06 05:52:43;;;;;;;11.97;6.50;;;;;;;31.28;54.79;100618.78;1748459;82;20960;-43
2022/07/06 05:55:10;;;;;;;23.15;7.03;;;;;;;31.38;53.93;100619.98;1736254;82;21252;-42
2022/07/06 05:57:38;;;;;;;20.95;7.67;;;;;;;31.52;52.42;100614.03;1727331;82;21471;-43
2022/07/06 06:01:36;;;;;;;21.95;7.20;;;;;;;31.77;51.26;100606.11;1789558;78;22608;-43
2022/07/06 06:04:05;;;;;;;17.98;7.35;;;;;;;31.89;52.31;100605.77;1739834;80;21442;-43
2022/07/06 06:06:32;;;;;;;15.35;7.40;;;;;;;32.02;49.10;100594.58;1712470;83;21363;-43
2022/07/06 06:08:58;;;;;;;20.23;7.80;;;;;;;32.05;49.29;100599.11;1708240;83;20954;-43
2022/07/06 06:11:27;;;;;;;15.40;6.92;;;;;;;32.15;48.41;100602.12;1709498;83;20891;-43
2022/07/06 06:13:55;;;;;;;18.82;7.22;;;;;;;32.26;47.83;100601.80;1704635;83;21018;-44
2022/07/06 06:16:23;;;;;;;13.90;7.58;;;;;;;32.33;47.42;100606.84;1703701;83;21018;-43
2022/07/06 06:18:50;;;;;;;21.07;6.95;;;;;;;32.35;47.83;100608.84;1709540;83;21099;-43
2022/07/06 06:21:17;;;;;;;12.05;6.53;;;;;;;32.32;46.11;100607.84;1706892;83;20887;-43
2022/07/06 06:23:44;;;;;;;13.05;7.00;;;;;;;32.31;45.92;100606.14;1704315;83;20999;-43
2022/07/06 06:26:11;;;;;;;16.77;6.47;;;;;;;32.33;45.89;100613.53;1688202;84;20999;-43
2022/07/06 06:28:41;;;;;;;13.38;6.60;;;;;;;32.25;46.37;100610.84;1705365;83;20943;-43
2022/07/06 06:31:08;;;;;;;21.48;6.17;;;;;;;32.31;46.77;100602.13;1707518;82;21321;-44
2022/07/06 06:33:36;;;;;;;14.53;6.12;;;;;;;32.34;45.20;100600.48;1703662;83;20955;-43
2022/07/06 06:36:04;;;;;;;8.33;6.08;;;;;;;32.28;44.77;100602.95;1698752;84;20971;-43
2022/07/06 06:38:31;;;;;;;9.55;5.97;;;;;;;32.29;44.69;100603.28;1693136;84;21075;-43
2022/07/06 06:40:58;;;;;;;8.93;6.00;;;;;;;32.28;45.31;100601.61;1688619;84;20995;-43
2022/07/06 06:43:25;;;;;;;9.70;5.60;;;;;;;32.23;44.73;100598.94;1688014;83;21196;-43
2022/07/06 06:45:58;;;;;;;8.98;5.62;;;;;;;32.24;45.82;100605.15;1692997;83;20999;-43
2022/07/06 06:48:25;;;;;;;8.80;5.50;;;;;;;32.28;46.12;100595.77;1694039;84;20963;-43
2022/07/06 06:50:52;;;;;;;8.70;5.78;;;;;;;32.29;46.14;100596.11;1696293;84;20983;-43
2022/07/06 06:53:19;;;;;;;10.28;5.50;;;;;;;32.32;45.84;100598.47;1684553;84;21481;-44
2022/07/06 06:55:46;;;;;;;9.20;5.60;;;;;;;32.29;45.70;100597.45;1697154;84;22132;-43
2022/07/06 06:58:12;;;;;;;5.83;4.95;;;;;;;32.23;46.47;100598.12;1696629;84;21318;-43
2022/07/06 07:00:39;;;;;;;11.20;5.55;;;;;;;32.31;44.86;100599.94;1692343;83;20982;-44
2022/07/06 07:03:05;;;;;;;8.38;5.90;;;;;;;32.28;45.10;100591.76;1706522;83;21046;-44
2022/07/06 07:05:34;;;;;;;8.75;5.72;;;;;;;32.26;45.59;100591.09;1687120;84;20868;-44
2022/07/06 07:08:01;;;;;;;12.85;5.75;;;;;;;32.20;44.75;100587.72;1689831;83;21169;-44
2022/07/06 07:10:28;;;;;;;6.37;5.40;;;;;;;32.18;45.21;100590.59;1686746;84;20959;-44
2022/07/06 07:12:56;;;;;;;10.63;5.37;;;;;;;32.15;45.89;100590.92;1707112;82;20991;-42
2022/07/06 07:15:23;;;;;;;7.15;5.42;;;;;;;32.16;45.91;100591.75;1672676;84;21089;-43
2022/07/06 07:17:49;;;;;;;9.68;5.10;;;;;;;32.16;45.69;100584.56;1697809;83;20990;-43
2022/07/06 07:20:16;;;;;;;6.42;5.45;;;;;;;32.17;45.17;100582.22;1673598;83;21259;-43
2022/07/06 07:22:43;;;;;;;10.10;5.05;;;;;;;32.21;46.37;100586.72;1706699;83;20931;-43
2022/07/06 07:25:10;;;;;;;9.88;4.95;;;;;;;32.35;46.18;100579.39;1690876;84;21049;-43
2022/07/06 07:27:37;;;;;;;6.90;5.60;;;;;;;32.49;44.82;100578.38;1681940;83;21631;-43
2022/07/06 07:30:05;;;;;;;5.25;4.85;;;;;;;32.52;44.86;100572.16;1690641;84;20998;-43
2022/07/06 07:32:32;;;;;;;11.95;5.53;;;;;;;32.62;44.69;100576.00;1692613;84;21882;-43
2022/07/06 07:34:59;;;;;;;9.53;5.15;;;;;;;32.74;44.18;100577.81;1685536;84;20935;-43
2022/07/06 07:37:26;;;;;;;8.60;5.40;;;;;;;32.84;43.52;100574.94;1681275;84;21436;-44
2022/07/06 07:39:53;;;;;;;10.78;5.53;;;;;;;32.90;43.66;100572.12;1674927;83;21037;-44
2022/07/06 07:42:20;;;;;;;8.48;5.78;;;;;;;33.02;42.26;100570.72;1699025;82;20911;-44
2022/07/06 07:44:47;;;;;;;10.75;5.10;;;;;;;33.12;43.09;100576.39;1699280;83;21140;-44
2022/07/06 07:47:14;;;;;;;10.72;5.05;;;;;;;33.10;41.60;100577.41;1670730;84;21046;-44
2022/07/06 07:49:42;;;;;;;6.70;5.17;;;;;;;33.20;42.38;100583.87;1672675;84;20991;-43
2022/07/06 07:52:08;;;;;;;10.93;5.15;;;;;;;33.41;43.08;100571.70;1679201;84;21540;-44
2022/07/06 07:54:35;;;;;;;6.05;4.97;;;;;;;33.53;41.25;100575.70;1676344;84;20923;-44
2022/07/06 07:57:04;;;;;;;6.67;5.37;;;;;;;33.61;40.50;100569.95;1675446;83;21215;-43
2022/07/06 07:59:30;;;;;;;8.50;4.97;;;;;;;33.70;40.21;100572.89;1661287;84;20951;-44
2022/07/06 08:01:57;;;;;;;11.53;5.08;;;;;;;33.92;41.56;100575.77;1669450;84;21079;-44
2022/07/06 08:04:24;;;;;;;6.78;5.03;;;;;;;34.15;40.34;100572.25;1679994;84;21026;-44
2022/07/06 08:06:50;;;;;;;5.15;4.72;;;;;;;34.33;39.71;100574.11;1700296;83;21018;-43
2022/07/06 08:09:18;;;;;;;5.85;4.50;;;;;;;34.50;39.92;100579.36;1707863;83;21096;-44
2022/07/06 08:11:44;;;;;;;6.65;4.67;;;;;;;34.56;38.51;100581.30;1707132;83;20994;-44
2022/07/06 08:14:14;;;;;;;7.72;4.58;;;;;;;34.67;38.65;100580.83;1678010;84;20995;-44
2022/07/06 08:16:41;;;;;;;9.95;4.87;;;;;;;34.80;37.11;100578.03;1685886;83;21013;-42
2022/07/06 08:19:08;;;;;;;6.12;5.08;;;;;;;34.86;37.06;100575.08;1708450;83;21090;-43
2022/07/06 08:21:35;;;;;;;5.30;4.10;;;;;;;34.98;36.50;100580.33;1669376;84;21157;-43
2022/07/06 08:24:03;;;;;;;10.00;4.60;;;;;;;35.08;38.79;100578.20;1693083;83;20943;-43
2022/07/06 08:26:30;;;;;;;5.62;4.17;;;;;;;35.16;37.28;100577.27;1679983;84;20907;-43
2022/07/06 08:28:57;;;;;;;11.90;4.90;;;;;;;35.21;35.37;100573.50;1669874;84;21113;-44
2022/07/06 08:31:24;;;;;;;8.38;4.42;;;;;;;35.21;38.21;100569.46;1670829;84;21021;-43
2022/07/06 08:33:53;;;;;;;4.92;4.10;;;;;;;35.22;35.93;100568.44;1688234;84;21251;-43
2022/07/06 08:36:20;;;;;;;7.10;4.72;;;;;;;35.31;35.50;100571.04;1709206;83;20880;-43
2022/07/06 08:38:48;;;;;;;6.58;4.45;;;;;;;35.38;36.08;100573.28;1686459;84;20958;-43
2022/07/06 08:41:15;;;;;;;6.60;4.50;;;;;;;35.51;36.68;100566.75;1703345;83;21427;-43
2022/07/06 08:43:42;;;;;;;8.28;4.35;;;;;;;35.66;34.52;100567.19;1704743;83;20998;-43
2022/07/06 08:46:09;;;;;;;9.70;4.62;;;;;;;35.73;35.49;100565.91;1690456;84;21150;-42
2022/07/06 08:48:38;;;;;;;5.85;4.42;;;;;;;35.78;36.29;100562.97;1683817;83;21493;-42
2022/07/06 08:51:06;;;;;;;11.18;4.58;;;;;;;35.88;35.65;100564.50;1695955;83;20943;-42
2022/07/06 08:53:33;;;;;;;19.62;4.33;;;;;;;35.89;34.38;100562.97;1668606;84;21064;-43
2022/07/06 08:56:04;;;;;;;15.15;4.45;;;;;;;35.88;35.18;100561.80;1688975;84;21556;-43
2022/07/06 08:58:33;;;;;;;4.50;4.05;;;;;;;35.81;34.08;100561.73;1685843;84;21121;-44
2022/07/06 09:01:00;;;;;;;13.80;4.80;;;;;;;35.79;35.21;100559.75;1710992;83;20959;-44
2022/07/06 09:03:27;;;;;;;14.95;4.25;;;;;;;35.88;35.95;100555.92;1704829;83;20947;-44
2022/07/06 09:05:59;;;;;;;8.35;3.92;;;;;;;36.05;35.13;100549.77;1671753;83;20971;-44
2022/07/06 09:08:27;;;;;;;9.28;4.25;;;;;;;36.15;34.95;100551.28;1683471;83;21142;-44
2022/07/06 09:10:55;;;;;;;6.85;3.92;;;;;;;36.23;34.23;100553.82;1686007;84;21524;-44
2022/07/06 09:13:22;;;;;;;6.75;3.98;;;;;;;36.32;34.73;100554.01;1701816;83;21089;-44
2022/07/06 09:15:49;;;;;;;5.85;3.45;;;;;;;36.45;32.54;100551.06;1685553;84;21030;-43
2022/07/06 09:18:15;;;;;;;20.32;3.83;;;;;;;36.62;34.63;100545.72;1667695;84;21010;-44
2022/07/06 09:20:42;;;;;;;4.53;3.20;;;;;;;36.81;31.64;100540.11;1686877;84;21051;-45
2022/07/06 09:23:09;;;;;;;7.87;3.20;;;;;;;36.86;30.31;100538.16;1701961;83;21167;-44
2022/07/06 09:25:36;;;;;;;7.72;2.87;;;;;;;36.93;31.60;100535.50;1711493;83;20912;-43
2022/07/06 09:28:05;;;;;;;3.62;2.60;;;;;;;36.99;27.87;100543.28;1676859;83;20974;-43
2022/07/06 09:30:32;;;;;;;4.45;2.70;;;;;;;36.85;27.48;100532.45;1681335;84;21496;-43
2022/07/06 09:32:59;;;;;;;10.03;3.55;;;;;;;36.79;26.98;100531.92;1683714;84;20997;-44
2022/07/06 09:35:30;;;;;;;4.97;2.58;;;;;;;36.81;27.20;100528.51;1678421;84;22013;-44
2022/07/06 09:38:11;;;;;;;8.73;3.00;;;;;;;36.92;30.43;100526.56;1703483;83;21009;-44
2022/07/06 09:40:44;;;;;;;3.90;2.90;;;;;;;37.17;30.61;100529.30;1711283;83;21009;-43
2022/07/06 09:43:18;;;;;;;;;;;;;;;37.38;26.96;100518.85;1705377;83;21546;-45
2022/07/06 09:45:55;;;;;;;6.10;3.25;;;;;;;37.41;25.36;100526.53;1687066;83;20426;-44
2022/07/06 09:48:25;;;;;;;6.80;3.20;;;;;;;37.51;28.17;100521.59;1715062;83;21140;-44
2022/07/06 09:51:02;;;;;;;6.62;2.90;;;;;;;37.61;29.31;100523.06;1688096;84;20951;-44
2022/07/06 09:53:28;;;;;;;8.53;3.47;;;;;;;37.58;27.31;100522.95;1664292;84;20921;-43
2022/07/06 09:55:58;;;;;;;10.00;3.92;;;;;;;37.59;28.30;100526.49;1680673;84;20965;-45
2022/07/06 09:58:24;;;;;;;10.78;3.67;;;;;;;37.75;27.74;100517.97;1677598;84;20976;-44
2022/07/06 10:00:52;;;;;;;7.28;3.45;;;;;;;37.78;25.92;100520.28;1680497;84;21157;-44
2022/07/06 10:03:19;;;;;;;5.40;3.08;;;;;;;37.83;26.86;100516.13;1672011;85;21495;-44
2022/07/06 10:05:47;;;;;;;3.17;2.90;;;;;;;37.81;25.88;100514.46;1679522;85;21083;-44
2022/07/06 10:08:15;;;;;;;6.60;3.17;;;;;;;37.92;28.40;100512.16;1668540;85;21012;-43
2022/07/06 10:10:42;;;;;;;8.60;3.42;;;;;;;38.07;26.82;100508.77;1663992;85;21020;-44
2022/07/06 10:13:09;;;;;;;4.90;3.22;;;;;;;38.16;28.12;100510.73;1699928;84;21525;-45
2022/07/06 10:15:39;;;;;;;3.70;3.30;;;;;;;38.23;30.12;100510.69;1679958;84;21000;-44
2022/07/06 10:18:08;;;;;;;4.45;3.10;;;;;;;38.31;28.75;100509.64;1664911;85;20985;-45
2022/07/06 10:20:37;;;;;;;3.67;2.98;;;;;;;38.28;28.82;100500.61;1684217;83;20986;-44
2022/07/06 10:23:07;;;;;;;4.25;3.08;;;;;;;38.40;26.98;100506.20;1691472;84;21015;-44
2022/07/06 10:25:34;;;;;;;13.62;3.25;;;;;;;38.18;28.63;100506.45;1692688;83;21462;-44
2022/07/06 10:28:01;;;;;;;3.25;2.92;;;;;;;37.75;28.83;100507.17;1684130;84;21014;-44
2022/07/06 10:30:29;;;;;;;3.95;3.12;;;;;;;37.40;29.24;100504.64;1681510;84;21046;-44
2022/07/06 10:32:57;;;;;;;11.83;3.30;;;;;;;37.12;32.05;100511.01;1689769;84;21430;-43
2022/07/06 10:35:24;;;;;;;5.95;3.27;;;;;;;36.72;30.42;100504.08;1686748;84;20908;-43
2022/07/06 10:38:05;;;;;;;3.17;2.98;;;;;;;36.30;31.73;100507.58;1692716;84;21216;-43
2022/07/06 10:43:19;;;;;;;22.22;3.20;;;;;;;35.94;32.27;100501.30;1682465;84;21007;-44
2022/07/06 10:45:50;;;;;;;7.55;2.90;;;;;;;35.89;32.21;100499.71;1689071;83;21042;-43
2022/07/06 10:48:17;;;;;;;6.72;2.90;;;;;;;35.81;31.93;100493.95;1685220;84;20968;-44
2022/07/06 10:50:54;;;;;;;4.60;3.20;;;;;;;35.69;31.87;100490.63;1694301;83;21149;-43
2022/07/06 10:53:24;;;;;;;6.15;2.90;;;;;;;35.64;31.56;100489.86;1701545;82;21015;-44
2022/07/06 10:55:54;;;;;;;13.53;3.30;;;;;;;35.57;32.05;100487.09;1697563;83;21556;-44
2022/07/06 10:58:53;;;;;;;3.70;2.92;;;;;;;35.46;33.01;100485.72;1698465;83;21549;-44
2022/07/06 11:01:22;;;;;;;10.53;2.83;;;;;;;35.34;34.96;100486.75;1710860;83;21062;-44
2022/07/06 11:03:57;;;;;;;12.05;3.95;;;;;;;35.17;30.29;100482.13;1640101;86;21252;-44
2022/07/06 11:06:25;;;;;;;6.15;3.20;;;;;;;35.13;31.47;100478.16;1687993;84;20944;-43
2022/07/06 11:09:10;;;;;;;6.72;3.72;;;;;;;35.18;30.78;100480.29;1673752;84;21038;-42
2022/07/06 11:11:41;;;;;;;5.35;2.77;;;;;;;35.16;33.51;100474.27;1678896;84;21398;-44
2022/07/06 11:14:15;;;;;;;5.62;2.85;;;;;;;35.32;33.38;100474.53;1686393;84;21024;-43
2022/07/06 11:16:54;;;;;;;7.67;2.92;;;;;;;35.38;31.79;100469.72;1681150;84;22187;-45
2022/07/06 11:19:23;;;;;;;11.12;3.15;;;;;;;35.46;31.58;100470.11;1684505;84;21486;-44
2022/07/06 11:21:59;;;;;;;8.83;2.67;;;;;;;35.76;32.34;100462.76;1691019;83;21776;-43
2022/07/06 11:24:29;;;;;;;5.67;3.10;;;;;;;36.22;35.00;100465.47;1648787;84;21037;-45
2022/07/06 11:26:57;;;;;;;7.78;3.15;;;;;;;36.44;33.52;100465.39;1680799;83;20987;-44